Time;durP1;ratioP1;P1;durP2;ratioP2;P2;SDS_P1;SDS_P2;PMS_P1;PMS_P2;Temp;Humidity;BMP_temperature;BMP_pressure;BME280_temperature;BME280_humidity;BME280_pressure;Samples;Min_cycle;Max_cycle;Signal;HPM_P1;HPM_P2
2022/03/13 00:02:07;;;;;;;2.60;0.97;;;10.90;99.90;;;;;;4939091;29;20672;-75
2022/03/13 00:04:35;;;;;;;1.67;1.07;;;10.80;99.90;;;;;;4939087;29;20209;-75
2022/03/13 00:07:04;;;;;;;1.27;1.00;;;10.90;99.90;;;;;;4939314;29;20213;-74
2022/03/13 00:09:31;;;;;;;1.27;0.70;;;10.90;99.90;;;;;;4939015;29;20225;-74
2022/03/13 00:11:58;;;;;;;1.57;0.70;;;10.80;99.90;;;;;;4940490;29;20580;-75
2022/03/13 08:20:30;;;;;;;6.70;3.73;;;16.20;99.90;;;;;;3960571;23;20230;-75
2022/03/13 08:22:57;;;;;;;7.33;3.30;;;16.30;99.90;;;;;;4977260;28;20211;-76
2022/03/13 08:25:25;;;;;;;8.30;3.97;;;16.50;99.90;;;;;;4977480;28;20231;-76
2022/03/13 08:27:52;;;;;;;6.33;3.60;;;16.80;99.90;;;;;;4974331;28;20323;-76
2022/03/13 08:30:19;;;;;;;5.77;3.20;;;16.50;99.90;;;;;;4974823;28;20665;-74
2022/03/13 08:32:46;;;;;;;5.97;3.33;;;16.00;99.90;;;;;;4977377;28;20215;-75
2022/03/13 08:35:13;;;;;;;4.97;3.10;;;16.20;99.90;;;;;;4977482;28;20258;-75
2022/03/13 08:37:41;;;;;;;6.07;3.23;;;16.00;99.90;;;;;;4971813;28;20302;-75
2022/03/13 08:40:09;;;;;;;5.43;2.83;;;15.70;99.90;;;;;;4971863;28;20210;-75
2022/03/13 08:42:36;;;;;;;5.90;3.40;;;15.50;99.90;;;;;;4975137;28;20257;-76
2022/03/13 08:45:03;;;;;;;5.63;3.17;;;15.50;99.90;;;;;;4971839;28;20208;-74
2022/03/13 08:47:30;;;;;;;6.67;3.40;;;15.50;99.90;;;;;;4957135;28;20623;-75
2022/03/13 08:49:57;;;;;;;5.27;2.90;;;15.50;99.90;;;;;;4970458;28;20199;-74
2022/03/13 08:52:24;;;;;;;6.57;3.17;;;15.80;99.90;;;;;;4975387;28;20214;-75
2022/03/13 08:54:52;;;;;;;5.50;2.90;;;15.80;99.90;;;;;;4976851;28;20542;-74
2022/03/13 08:57:19;;;;;;;4.87;2.80;;;16.00;99.90;;;;;;4960620;28;20236;-75
2022/03/13 08:59:46;;;;;;;5.23;3.20;;;15.80;99.90;;;;;;4957245;28;20203;-75
2022/03/13 09:02:13;;;;;;;4.90;2.60;;;15.70;99.90;;;;;;4957365;28;20204;-76
2022/03/13 09:04:41;;;;;;;5.63;2.67;;;15.50;99.90;;;;;;4973074;28;20207;-75
2022/03/13 09:07:08;;;;;;;4.93;2.60;;;15.70;99.90;;;;;;4976043;28;20242;-75
2022/03/13 09:09:34;;;;;;;4.63;2.63;;;16.00;99.90;;;;;;4976385;28;20204;-76
2022/03/13 09:12:06;;;;;;;4.47;2.50;;;15.80;99.90;;;;;;4976505;28;20211;-75
2022/03/13 09:14:34;;;;;;;5.40;2.70;;;16.00;99.90;;;;;;4976588;28;20214;-75
2022/03/13 09:17:01;;;;;;;4.10;2.37;;;16.00;99.90;;;;;;4976676;28;20600;-76
2022/03/13 09:19:28;;;;;;;3.63;2.37;;;15.70;99.90;;;;;;4975593;28;20202;-75
2022/03/13 09:21:55;;;;;;;4.33;2.33;;;15.20;99.90;;;;;;4972882;28;20708;-75
2022/03/13 09:24:22;;;;;;;4.20;2.37;;;15.20;99.90;;;;;;4975389;28;20294;-75
2022/03/13 09:26:49;;;;;;;4.53;2.57;;;15.20;99.90;;;;;;4975840;28;20709;-74
2022/03/13 09:29:17;;;;;;;3.20;2.07;;;15.00;99.90;;;;;;4976055;28;20211;-75
2022/03/13 09:31:43;;;;;;;3.90;2.03;;;14.70;99.90;;;;;;4976513;28;20207;-75
2022/03/13 09:34:11;;;;;;;3.23;2.03;;;14.50;99.90;;;;;;4957134;28;20211;-75
2022/03/13 09:36:37;;;;;;;4.63;2.40;;;14.50;99.90;;;;;;4956450;28;20266;-75
2022/03/13 09:39:05;;;;;;;4.77;1.87;;;14.50;99.90;;;;;;4956356;28;20208;-77
2022/03/13 09:41:31;;;;;;;4.07;2.00;;;14.40;99.90;;;;;;4956700;28;20220;-75
2022/03/13 09:43:58;;;;;;;5.80;1.93;;;14.40;99.90;;;;;;4956835;28;20204;-76
2022/03/13 09:46:26;;;;;;;3.77;2.23;;;14.50;99.90;;;;;;4956393;28;20238;-75
2022/03/13 09:48:54;;;;;;;2.90;1.53;;;14.50;99.90;;;;;;4956331;28;20231;-75
2022/03/13 09:51:21;;;;;;;3.13;1.70;;;14.40;99.90;;;;;;4956379;28;20212;-75
2022/03/13 09:53:49;;;;;;;6.00;2.07;;;14.50;99.90;;;;;;4956550;28;20231;-74
2022/03/13 09:56:16;;;;;;;3.30;1.73;;;14.50;99.90;;;;;;4956473;28;20232;-75
2022/03/13 09:58:44;;;;;;;3.13;2.03;;;14.70;99.90;;;;;;4956262;28;20228;-75
2022/03/13 10:01:11;;;;;;;2.37;1.40;;;14.90;99.90;;;;;;4956021;28;20216;-75
2022/03/13 10:03:40;;;;;;;3.30;1.70;;;15.10;99.90;;;;;;4975254;28;20215;-75
2022/03/13 10:06:07;;;;;;;2.63;1.43;;;15.10;99.90;;;;;;4974875;28;20231;-75
2022/03/13 10:08:34;;;;;;;2.80;1.50;;;15.50;99.90;;;;;;4975019;28;20231;-74
2022/03/13 10:11:02;;;;;;;3.50;1.50;;;15.80;99.90;;;;;;4975473;28;20239;-75
2022/03/13 10:13:38;;;;;;;3.90;1.77;;;16.20;99.50;;;;;;4975519;28;20211;-74
2022/03/13 10:16:06;;;;;;;5.10;1.73;;;16.10;99.70;;;;;;4975252;28;20211;-76
2022/03/13 10:18:34;;;;;;;2.87;1.70;;;16.10;99.30;;;;;;4975288;28;20268;-75
2022/03/13 10:21:09;;;;;;;3.20;1.90;;;16.00;99.40;;;;;;4975450;28;20246;-76
2022/03/13 10:23:37;;;;;;;3.13;1.63;;;16.10;99.90;;;;;;4975440;28;20210;-73
2022/03/13 10:26:05;;;;;;;3.47;1.47;;;16.00;99.10;;;;;;4975347;28;20231;-75
2022/03/13 10:28:34;;;;;;;2.77;1.50;;;15.80;99.80;;;;;;4975029;28;20227;-74
2022/03/13 10:31:15;;;;;;;2.40;1.60;;;15.70;99.50;;;;;;4975247;28;20215;-74
2022/03/13 10:33:55;;;;;;;3.03;1.47;;;15.80;99.90;;;;;;4974649;28;20210;-74
2022/03/13 10:36:31;;;;;;;2.93;1.67;;;15.90;99.40;;;;;;4960330;28;20210;-75
2022/03/13 10:38:59;;;;;;;3.80;1.30;;;16.00;99.70;;;;;;4955421;28;20602;-74
2022/03/13 10:41:42;;;;;;;2.20;1.40;;;16.20;99.50;;;;;;4955690;28;20611;-77
2022/03/13 10:44:13;;;;;;;2.10;1.20;;;16.30;99.10;;;;;;4955213;28;20207;-75
2022/03/13 10:46:42;;;;;;;2.53;1.60;;;16.30;98.90;;;;;;4974444;28;20231;-75
2022/03/13 10:49:09;;;;;;;3.60;1.43;;;16.30;99.20;;;;;;4974774;28;20223;-74
2022/03/13 10:51:40;;;;;;;2.77;1.60;;;16.40;99.30;;;;;;4974537;28;20210;-74
2022/03/13 10:54:08;;;;;;;2.73;1.30;;;16.60;99.20;;;;;;4974201;28;20211;-74
2022/03/13 10:56:35;;;;;;;3.07;1.60;;;16.70;99.50;;;;;;4974959;28;20214;-74
2022/03/13 10:59:17;;;;;;;2.10;1.60;;;16.80;99.10;;;;;;4974589;28;20211;-75
2022/03/13 11:01:44;;;;;;;1.83;1.30;;;16.60;98.10;;;;;;4974360;28;20211;-74
2022/03/13 11:04:10;;;;;;;2.20;1.33;;;16.40;98.20;;;;;;4974562;28;20214;-74
2022/03/13 11:06:39;;;;;;;2.00;1.20;;;15.90;98.70;;;;;;4974191;28;20241;-75
2022/03/13 11:09:05;;;;;;;3.13;1.53;;;15.80;98.90;;;;;;4974154;28;20203;-74
2022/03/13 11:11:34;;;;;;;2.03;1.20;;;15.90;99.30;;;;;;4974469;28;20237;-74
2022/03/13 11:14:02;;;;;;;1.43;0.90;;;15.80;98.40;;;;;;4974452;28;20239;-76
2022/03/13 11:16:32;;;;;;;2.43;1.40;;;15.80;99.20;;;;;;4974358;28;20211;-75
2022/03/13 11:19:02;;;;;;;2.27;1.20;;;15.70;98.80;;;;;;4974295;28;20227;-74
2022/03/13 11:21:32;;;;;;;2.13;1.10;;;15.70;99.10;;;;;;4958057;28;20667;-74
2022/03/13 11:24:00;;;;;;;2.80;1.20;;;15.90;99.30;;;;;;4955039;28;20212;-74
2022/03/13 11:26:30;;;;;;;1.90;1.10;;;16.10;99.30;;;;;;4954884;28;20281;-75
2022/03/13 11:28:57;;;;;;;2.90;1.30;;;16.10;98.30;;;;;;4954993;28;20319;-74
2022/03/13 11:31:29;;;;;;;2.17;1.33;;;16.10;98.30;;;;;;4954979;28;20667;-75
2022/03/13 11:34:11;;;;;;;2.73;1.50;;;16.00;98.30;;;;;;4955185;28;20212;-75
2022/03/13 11:36:39;;;;;;;2.03;1.10;;;16.10;98.60;;;;;;4954864;29;20304;-75
2022/03/13 11:39:09;;;;;;;2.70;2.13;;;16.00;98.50;;;;;;4954920;28;20208;-76
2022/03/13 11:41:41;;;;;;;2.47;1.20;;;16.10;98.60;;;;;;4954999;28;20223;-75
2022/03/13 11:44:40;;;;;;;3.23;1.40;;;16.20;98.40;;;;;;4954833;28;20678;-76
2022/03/13 11:47:24;;;;;;;2.23;1.10;;;16.40;98.10;;;;;;4953830;28;20251;-74
2022/03/13 11:49:52;;;;;;;2.37;1.47;;;16.50;97.80;;;;;;4954779;28;20222;-75
2022/03/13 11:52:31;;;;;;;1.87;1.20;;;16.60;97.90;;;;;;4954845;28;20219;-75
2022/03/13 11:55:03;;;;;;;2.73;1.37;;;16.40;98.10;;;;;;4955026;28;20211;-74
2022/03/13 11:57:42;;;;;;;2.47;1.30;;;16.10;98.50;;;;;;4954607;28;20695;-76
2022/03/13 12:00:30;;;;;;;4.37;1.30;;;16.10;98.40;;;;;;4954645;28;20218;-76
2022/03/13 12:03:15;;;;;;;2.23;1.10;;;16.00;98.70;;;;;;4955178;28;20623;-76
2022/03/13 12:05:50;;;;;;;2.30;1.50;;;15.80;98.90;;;;;;4954931;28;20680;-76
2022/03/13 12:08:21;;;;;;;2.80;1.50;;;15.90;98.80;;;;;;4954504;28;20243;-76
2022/03/13 12:10:50;;;;;;;2.83;1.50;;;15.80;98.70;;;;;;4954201;28;20235;-76
2022/03/13 12:13:20;;;;;;;2.33;1.50;;;15.90;98.50;;;;;;4957434;28;20208;-76
2022/03/13 12:15:48;;;;;;;1.57;1.03;;;15.80;98.70;;;;;;4973714;28;20215;-75
2022/03/13 12:18:17;;;;;;;2.20;1.20;;;15.80;98.90;;;;;;4973263;28;20238;-76
2022/03/13 12:20:45;;;;;;;1.57;1.10;;;15.90;98.60;;;;;;4965931;28;20208;-76
2022/03/13 12:23:24;;;;;;;2.63;1.33;;;15.90;98.90;;;;;;4953965;28;20578;-76
2022/03/13 12:25:54;;;;;;;2.30;1.13;;;16.00;98.90;;;;;;4954210;28;20624;-76
2022/03/13 12:28:32;;;;;;;1.67;0.90;;;16.30;98.50;;;;;;4954552;28;20294;-76
2022/03/13 12:31:02;;;;;;;1.17;0.77;;;16.60;99.30;;;;;;4954965;28;21397;-75
2022/03/13 12:33:31;;;;;;;1.53;1.00;;;16.60;97.90;;;;;;4957130;28;20544;-75
2022/03/13 12:35:59;;;;;;;1.93;1.00;;;16.70;97.80;;;;;;4958455;28;20218;-75
2022/03/13 12:38:30;;;;;;;2.40;1.10;;;16.80;97.40;;;;;;4957642;28;20263;-76
2022/03/13 12:41:00;;;;;;;2.43;1.10;;;16.70;97.30;;;;;;4958595;28;20220;-75
2022/03/13 12:43:42;;;;;;;2.17;0.97;;;16.70;97.80;;;;;;4961527;28;20212;-75
2022/03/13 12:46:12;;;;;;;1.70;1.00;;;16.80;97.30;;;;;;4957608;28;20676;-75
2022/03/13 12:48:39;;;;;;;1.00;0.80;;;16.90;97.70;;;;;;4972953;28;20713;-75
2022/03/13 12:51:05;;;;;;;1.30;0.83;;;17.20;97.30;;;;;;4969303;28;20213;-78
2022/03/13 12:53:34;;;;;;;1.67;1.00;;;17.00;96.50;;;;;;4972986;28;20218;-76
2022/03/13 12:56:03;;;;;;;2.20;0.90;;;16.80;96.90;;;;;;4973483;28;20220;-78
2022/03/13 12:58:43;;;;;;;0.90;0.60;;;16.90;97.10;;;;;;4976210;28;20318;-76
2022/03/13 13:01:18;;;;;;;2.37;0.90;;;16.50;96.70;;;;;;4976499;28;20207;-77
2022/03/13 13:03:52;;;;;;;0.90;0.63;;;16.50;97.20;;;;;;4976786;28;20214;-77
2022/03/13 13:06:34;;;;;;;1.47;0.73;;;16.60;97.70;;;;;;4976126;28;20207;-76
2022/03/13 13:09:01;;;;;;;1.47;0.70;;;16.70;96.70;;;;;;4975756;28;20231;-78
2022/03/13 13:11:37;;;;;;;1.23;0.80;;;16.60;96.30;;;;;;4975923;28;20686;-77
2022/03/13 13:14:04;;;;;;;1.93;0.80;;;16.50;97.50;;;;;;4971542;28;20210;-77
2022/03/13 13:16:32;;;;;;;0.90;0.60;;;16.80;97.10;;;;;;4975493;28;20218;-77
2022/03/13 13:18:59;;;;;;;1.33;0.50;;;16.80;96.40;;;;;;4967877;28;20227;-76
2022/03/13 13:21:34;;;;;;;1.40;0.90;;;16.80;96.70;;;;;;4970929;28;20226;-76
2022/03/13 13:24:01;;;;;;;0.60;0.50;;;16.80;96.80;;;;;;4976129;28;20240;-78
2022/03/13 13:26:42;;;;;;;2.07;0.90;;;16.80;96.80;;;;;;4975401;28;20207;-76
2022/03/13 13:29:10;;;;;;;0.90;0.60;;;16.80;96.50;;;;;;4974783;28;20207;-78
2022/03/13 13:31:37;;;;;;;0.67;0.50;;;16.80;97.00;;;;;;4969531;28;20211;-77
2022/03/13 13:34:17;;;;;;;0.90;0.73;;;16.80;96.30;;;;;;4974374;28;20701;-76
2022/03/13 13:36:44;;;;;;;0.80;0.70;;;16.80;96.10;;;;;;4973474;28;20235;-78
2022/03/13 13:39:12;;;;;;;1.27;0.73;;;16.60;96.10;;;;;;4970435;28;20196;-77
2022/03/13 13:41:40;;;;;;;1.50;0.90;;;16.50;96.20;;;;;;4973682;28;20227;-80
2022/03/13 13:44:08;;;;;;;0.97;0.70;;;16.60;96.30;;;;;;4973494;28;20207;-74
2022/03/13 13:46:35;;;;;;;1.27;0.63;;;16.50;96.50;;;;;;4966038;28;20623;-78
2022/03/13 13:49:02;;;;;;;1.47;0.90;;;16.40;96.60;;;;;;4969929;28;20318;-81
2022/03/13 13:51:35;;;;;;;1.10;0.60;;;16.40;96.70;;;;;;4972734;28;20219;-76
2022/03/13 13:54:20;;;;;;;1.77;0.80;;;16.60;96.90;;;;;;4973300;28;20209;-75
2022/03/13 13:56:51;;;;;;;1.00;0.63;;;16.80;96.60;;;;;;4972917;28;20286;-76
2022/03/13 13:59:26;;;;;;;1.90;0.70;;;16.80;96.60;;;;;;4969611;28;20202;-74
2022/03/13 14:02:11;;;;;;;1.43;1.10;;;16.80;96.90;;;;;;4972179;28;20203;-75
2022/03/13 14:04:39;;;;;;;1.37;0.77;;;16.90;97.10;;;;;;4971776;28;20195;-77
2022/03/13 14:07:06;;;;;;;1.87;0.90;;;17.00;96.60;;;;;;4973615;28;20242;-74
2022/03/13 14:09:35;;;;;;;1.73;1.17;;;16.80;96.50;;;;;;4971979;28;20211;-75
2022/03/13 14:12:02;;;;;;;1.90;1.10;;;16.80;96.70;;;;;;4973343;28;20674;-75
2022/03/13 14:14:31;;;;;;;1.50;0.97;;;16.90;96.80;;;;;;4973111;28;20274;-75
2022/03/13 14:16:57;;;;;;;1.37;0.80;;;17.00;96.40;;;;;;4954580;28;20231;-74
2022/03/13 14:19:26;;;;;;;1.93;0.90;;;16.90;97.00;;;;;;4961706;28;20549;-82
2022/03/13 14:21:54;;;;;;;1.10;0.97;;;16.90;97.00;;;;;;4960282;28;20277;-74
2022/03/13 14:24:21;;;;;;;3.30;0.90;;;16.80;96.60;;;;;;4972912;28;20203;-76
2022/03/13 14:26:49;;;;;;;1.47;0.80;;;16.60;96.50;;;;;;4973979;28;20598;-74
2022/03/13 14:29:15;;;;;;;1.07;0.80;;;16.50;97.40;;;;;;4969645;28;20210;-74
2022/03/13 14:31:44;;;;;;;1.43;1.03;;;16.40;97.20;;;;;;4974104;28;20213;-74
2022/03/13 14:34:10;;;;;;;2.50;0.90;;;16.30;97.10;;;;;;4974243;28;20210;-74
2022/03/13 14:36:40;;;;;;;1.30;0.90;;;16.20;97.20;;;;;;4961714;28;20199;-74
2022/03/13 14:39:07;;;;;;;2.70;0.93;;;16.20;97.20;;;;;;4972902;28;20203;-74
2022/03/13 14:41:34;;;;;;;1.70;0.90;;;16.00;97.30;;;;;;4966342;28;20207;-74
2022/03/13 14:44:02;;;;;;;1.17;0.87;;;16.00;97.20;;;;;;4973290;28;20681;-74
2022/03/13 14:46:29;;;;;;;1.40;0.90;;;15.90;97.20;;;;;;4973157;28;20550;-74
2022/03/13 14:48:57;;;;;;;1.20;0.90;;;15.90;97.30;;;;;;4973173;28;20238;-74
2022/03/13 14:51:24;;;;;;;0.97;0.70;;;15.90;97.70;;;;;;4972822;28;20210;-74
2022/03/13 14:53:51;;;;;;;1.33;0.80;;;15.90;97.50;;;;;;4972030;28;20662;-74
2022/03/13 14:56:19;;;;;;;1.50;0.70;;;16.00;97.70;;;;;;4971965;28;20674;-73
2022/03/13 14:58:46;;;;;;;0.90;0.70;;;15.90;97.50;;;;;;4972141;28;20305;-74
2022/03/13 15:01:12;;;;;;;1.53;0.90;;;15.90;97.80;;;;;;4968188;28;20210;-73
2022/03/13 15:03:39;;;;;;;1.13;0.90;;;16.00;98.10;;;;;;4971084;28;20206;-73
2022/03/13 15:06:07;;;;;;;0.97;0.73;;;15.90;98.00;;;;;;4968874;28;20203;-73
2022/03/13 15:08:34;;;;;;;1.00;0.60;;;16.00;98.20;;;;;;4972726;28;20234;-73
2022/03/13 15:11:02;;;;;;;1.40;0.70;;;16.10;98.40;;;;;;4969986;28;20650;-73
2022/03/13 15:13:29;;;;;;;3.10;0.90;;;16.00;98.10;;;;;;4972614;28;20554;-73
2022/03/13 15:15:56;;;;;;;2.43;1.00;;;16.00;98.20;;;;;;4972449;28;20208;-74
2022/03/13 15:18:23;;;;;;;0.63;0.50;;;16.00;98.10;;;;;;4971289;28;20245;-73
2022/03/13 15:20:50;;;;;;;2.50;0.80;;;15.90;98.30;;;;;;4972270;28;20207;-73
2022/03/13 15:23:18;;;;;;;1.37;1.00;;;15.90;98.40;;;;;;4973776;28;20634;-73
2022/03/13 15:25:48;;;;;;;1.03;0.90;;;15.90;99.60;;;;;;4972660;28;20677;-73
2022/03/13 15:28:15;;;;;;;1.63;1.00;;;15.70;98.90;;;;;;4972962;28;20238;-73
2022/03/13 15:30:42;;;;;;;1.30;0.90;;;15.50;99.10;;;;;;4973393;28;20246;-73
2022/03/13 15:33:09;;;;;;;3.37;1.47;;;15.30;99.50;;;;;;4974059;28;20207;-73
2022/03/13 15:35:36;;;;;;;1.60;1.13;;;15.20;99.40;;;;;;4973796;28;20225;-73
2022/03/13 15:38:03;;;;;;;1.77;1.10;;;15.20;99.60;;;;;;4955972;28;20228;-73
2022/03/13 15:40:31;;;;;;;2.67;1.33;;;15.20;99.70;;;;;;4954519;28;20299;-73
2022/03/13 15:42:58;;;;;;;1.53;1.20;;;15.20;99.90;;;;;;4954297;28;20208;-73
2022/03/13 15:45:25;;;;;;;2.37;1.40;;;15.20;99.70;;;;;;4954668;28;20298;-73
2022/03/13 15:47:54;;;;;;;1.77;1.10;;;15.00;99.90;;;;;;4954471;28;20235;-73
2022/03/13 15:50:23;;;;;;;1.77;1.17;;;14.90;99.90;;;;;;4954758;28;20271;-72
2022/03/13 15:52:50;;;;;;;2.53;1.30;;;14.70;99.90;;;;;;4954706;28;20216;-72
2022/03/13 15:55:16;;;;;;;1.90;1.07;;;14.70;99.90;;;;;;4954514;28;20255;-72
2022/03/13 15:57:45;;;;;;;2.17;1.23;;;14.60;99.90;;;;;;4954163;28;20235;-74
2022/03/13 16:00:13;;;;;;;1.70;1.20;;;14.60;99.90;;;;;;4954228;28;20219;-73
2022/03/13 16:02:40;;;;;;;2.27;1.20;;;14.50;99.90;;;;;;4954508;28;20219;-73
2022/03/13 16:05:08;;;;;;;1.43;0.87;;;14.40;99.90;;;;;;4954415;28;20211;-73
2022/03/13 16:07:35;;;;;;;1.73;1.20;;;14.40;99.90;;;;;;4954105;28;20235;-73
2022/03/13 16:10:02;;;;;;;3.33;1.47;;;14.40;99.90;;;;;;4953828;28;20679;-73
2022/03/13 16:12:29;;;;;;;2.90;1.00;;;14.50;99.90;;;;;;4954125;28;20207;-73
2022/03/13 16:14:58;;;;;;;1.93;1.20;;;14.40;99.90;;;;;;4954138;28;20219;-73
2022/03/13 16:17:25;;;;;;;1.40;1.00;;;14.50;99.90;;;;;;4954228;28;20235;-73
2022/03/13 16:19:53;;;;;;;2.07;1.10;;;14.40;99.90;;;;;;4954256;28;20224;-73
2022/03/13 16:22:22;;;;;;;1.43;0.80;;;14.20;99.90;;;;;;4954227;28;20208;-73
2022/03/13 16:24:50;;;;;;;1.20;0.80;;;14.10;99.90;;;;;;4954724;28;20239;-73
2022/03/13 16:27:17;;;;;;;1.00;0.70;;;14.00;99.90;;;;;;4954249;28;20228;-73
2022/03/13 16:29:44;;;;;;;0.90;0.63;;;14.00;99.90;;;;;;4954119;28;20236;-73
2022/03/13 16:32:14;;;;;;;1.20;0.77;;;13.90;99.90;;;;;;4955486;28;20224;-73
2022/03/13 16:34:42;;;;;;;1.30;0.53;;;13.90;99.90;;;;;;4957677;28;20212;-73
2022/03/13 16:37:09;;;;;;;0.50;0.40;;;13.70;99.90;;;;;;4956865;28;20224;-73
2022/03/13 16:39:36;;;;;;;1.43;0.40;;;13.70;99.90;;;;;;4957148;28;20219;-73
2022/03/13 16:42:04;;;;;;;0.73;0.60;;;13.70;99.90;;;;;;4956791;28;20698;-73
2022/03/13 16:44:31;;;;;;;0.90;0.50;;;13.70;99.90;;;;;;4957427;28;20219;-72
2022/03/13 16:46:57;;;;;;;0.83;0.50;;;13.50;99.90;;;;;;4964434;28;20223;-72
2022/03/13 16:49:25;;;;;;;0.40;0.30;;;13.40;99.90;;;;;;4976776;28;20239;-72
2022/03/13 16:51:52;;;;;;;1.23;0.40;;;13.30;99.90;;;;;;4976784;28;20207;-73
2022/03/13 16:54:19;;;;;;;0.87;0.53;;;13.20;99.90;;;;;;4975347;28;20203;-73
2022/03/13 16:56:46;;;;;;;0.50;0.40;;;13.30;99.90;;;;;;4976193;28;20292;-72
2022/03/13 16:59:14;;;;;;;0.83;0.50;;;13.20;99.90;;;;;;4969197;28;20204;-73
2022/03/13 17:01:42;;;;;;;0.77;0.40;;;13.20;99.90;;;;;;4957593;28;20204;-72
2022/03/13 17:04:09;;;;;;;0.70;0.40;;;13.20;99.90;;;;;;4969308;28;20269;-73
2022/03/13 17:06:37;;;;;;;0.70;0.50;;;13.20;99.90;;;;;;4964599;28;20745;-73
2022/03/13 17:09:04;;;;;;;0.67;0.40;;;13.20;99.90;;;;;;4965761;28;20718;-73
2022/03/13 17:11:31;;;;;;;0.57;0.40;;;13.10;99.90;;;;;;4966924;28;20204;-73
2022/03/13 17:13:59;;;;;;;1.87;1.00;;;13.20;99.90;;;;;;4967666;28;20214;-73
2022/03/13 17:16:26;;;;;;;1.07;0.50;;;13.20;99.90;;;;;;4962101;28;20211;-73
2022/03/13 17:18:53;;;;;;;1.90;0.57;;;13.20;99.90;;;;;;4963718;28;20231;-73
2022/03/13 17:21:20;;;;;;;2.13;0.63;;;13.10;99.90;;;;;;4970636;28;20219;-73
2022/03/13 17:23:50;;;;;;;1.53;0.70;;;13.10;99.90;;;;;;4965926;28;20204;-73
2022/03/13 17:26:17;;;;;;;0.80;0.50;;;13.00;99.90;;;;;;4967188;28;20211;-73
2022/03/13 17:28:44;;;;;;;0.80;0.60;;;12.90;99.90;;;;;;4955179;28;20239;-73
2022/03/13 17:31:11;;;;;;;1.43;0.60;;;12.90;99.90;;;;;;4955490;28;20563;-73
2022/03/13 17:33:38;;;;;;;0.73;0.50;;;13.00;99.90;;;;;;4955540;28;20204;-73
2022/03/13 17:36:05;;;;;;;1.00;0.43;;;13.00;99.90;;;;;;4956138;28;20208;-73
2022/03/13 17:38:32;;;;;;;0.90;0.60;;;13.10;99.90;;;;;;4955918;28;20235;-73
2022/03/13 17:41:00;;;;;;;0.93;0.70;;;13.10;99.90;;;;;;4956651;28;20226;-73
2022/03/13 17:43:27;;;;;;;1.23;0.70;;;13.10;99.90;;;;;;4955434;28;20303;-73
2022/03/13 17:45:54;;;;;;;0.97;0.70;;;13.20;99.90;;;;;;4974936;28;20210;-73
2022/03/13 17:48:21;;;;;;;0.77;0.40;;;13.20;99.90;;;;;;4975511;28;20231;-73
2022/03/13 17:50:48;;;;;;;1.60;0.67;;;13.10;99.90;;;;;;4975580;28;20258;-73
2022/03/13 17:53:15;;;;;;;1.10;0.60;;;13.00;99.90;;;;;;4975374;28;20238;-72
2022/03/13 17:55:42;;;;;;;0.80;0.60;;;12.90;99.90;;;;;;4975611;28;20274;-73
2022/03/13 17:58:10;;;;;;;0.77;0.67;;;13.00;99.90;;;;;;4974877;28;20226;-75
2022/03/13 18:00:37;;;;;;;0.90;0.67;;;12.90;99.90;;;;;;4970084;28;20206;-73
2022/03/13 18:03:04;;;;;;;1.43;0.53;;;12.90;99.90;;;;;;4956163;28;20212;-73
2022/03/13 18:05:31;;;;;;;0.97;0.70;;;12.90;99.90;;;;;;4955988;28;20212;-74
2022/03/13 18:07:58;;;;;;;2.67;0.73;;;12.90;99.90;;;;;;4955753;28;20232;-73
2022/03/13 18:10:25;;;;;;;1.57;0.80;;;12.90;99.90;;;;;;4955958;28;20232;-74
2022/03/13 18:12:52;;;;;;;1.47;0.70;;;12.80;99.90;;;;;;4956088;28;20222;-73
2022/03/13 18:15:20;;;;;;;1.53;0.80;;;12.80;99.90;;;;;;4955965;28;20756;-73
2022/03/13 18:17:47;;;;;;;1.10;0.67;;;12.80;99.90;;;;;;4955870;28;20240;-73
2022/03/13 18:20:14;;;;;;;0.87;0.60;;;12.70;99.90;;;;;;4955676;28;20314;-73
2022/03/13 18:22:40;;;;;;;1.33;0.70;;;12.70;99.90;;;;;;4954827;29;20215;-74
2022/03/13 18:25:08;;;;;;;1.60;0.90;;;12.70;99.90;;;;;;4955408;28;20218;-74
2022/03/13 18:27:35;;;;;;;1.13;0.93;;;12.70;99.90;;;;;;4955192;28;20733;-73
2022/03/13 18:30:02;;;;;;;1.40;0.90;;;12.50;99.90;;;;;;4955162;28;20238;-73
2022/03/13 18:32:30;;;;;;;1.10;0.80;;;12.40;99.90;;;;;;4955277;28;20215;-73
2022/03/13 18:34:57;;;;;;;1.93;1.17;;;12.30;99.90;;;;;;4955346;28;20239;-73
2022/03/13 18:37:25;;;;;;;1.53;0.80;;;12.30;99.90;;;;;;4955119;28;20230;-73
2022/03/13 18:39:52;;;;;;;1.37;0.80;;;12.30;99.90;;;;;;4970441;28;20606;-74
2022/03/13 18:42:19;;;;;;;0.93;0.70;;;12.20;99.90;;;;;;4973745;28;20250;-74
2022/03/13 18:44:47;;;;;;;1.17;0.63;;;12.20;99.90;;;;;;4961776;28;20211;-73
2022/03/13 18:47:14;;;;;;;3.00;0.70;;;12.10;99.90;;;;;;4953533;28;20706;-73
2022/03/13 18:49:42;;;;;;;0.87;0.60;;;12.10;99.90;;;;;;4954655;28;20242;-73
2022/03/13 18:52:09;;;;;;;1.37;0.70;;;12.20;99.90;;;;;;4954722;28;20215;-73
2022/03/13 18:54:36;;;;;;;1.30;0.80;;;12.20;99.90;;;;;;4968551;28;20266;-73
2022/03/13 18:57:04;;;;;;;3.03;1.20;;;12.30;99.90;;;;;;4974004;28;20227;-73
2022/03/13 18:59:31;;;;;;;1.20;0.70;;;12.40;99.90;;;;;;4969225;28;20201;-73
2022/03/13 19:01:59;;;;;;;1.63;1.03;;;12.50;99.90;;;;;;4954860;28;20303;-73
2022/03/13 19:04:26;;;;;;;2.17;0.93;;;12.40;99.90;;;;;;4954883;28;20230;-73
2022/03/13 19:06:54;;;;;;;1.70;0.87;;;12.40;99.90;;;;;;4965445;28;20199;-74
2022/03/13 19:09:21;;;;;;;1.50;0.87;;;12.40;99.90;;;;;;4974287;28;20713;-73
2022/03/13 19:11:50;;;;;;;2.20;1.03;;;12.50;99.90;;;;;;4973818;28;20283;-73
2022/03/13 19:14:17;;;;;;;1.30;0.77;;;12.40;99.90;;;;;;4974381;28;20211;-74
2022/03/13 19:16:44;;;;;;;1.33;0.90;;;12.30;99.90;;;;;;4974078;28;20203;-73
2022/03/13 19:19:12;;;;;;;0.93;0.80;;;12.30;99.90;;;;;;4974365;28;20219;-73
2022/03/13 19:21:40;;;;;;;2.53;1.17;;;12.10;99.90;;;;;;4974281;28;20214;-73
2022/03/13 19:24:09;;;;;;;3.23;1.00;;;12.10;99.90;;;;;;4974287;28;20262;-73
2022/03/13 19:26:36;;;;;;;1.23;0.90;;;11.90;99.90;;;;;;4973944;28;20219;-73
2022/03/13 19:29:04;;;;;;;1.70;0.80;;;11.70;99.90;;;;;;4973890;28;20594;-73
2022/03/13 19:31:31;;;;;;;1.43;0.90;;;11.60;99.90;;;;;;4964237;28;20204;-73
2022/03/13 19:33:58;;;;;;;1.50;0.90;;;11.60;99.90;;;;;;4954316;28;20299;-73
2022/03/13 19:36:26;;;;;;;1.50;0.90;;;11.60;99.90;;;;;;4954174;29;20204;-73
2022/03/13 19:38:52;;;;;;;1.97;0.93;;;11.50;99.90;;;;;;4958198;28;20230;-73
2022/03/13 19:41:25;;;;;;;1.67;0.90;;;11.50;99.90;;;;;;4974665;28;20336;-74
2022/03/13 19:43:58;;;;;;;2.87;1.00;;;11.40;99.90;;;;;;4970970;28;20208;-74
2022/03/13 19:46:25;;;;;;;1.40;1.07;;;11.40;99.90;;;;;;4963013;28;20232;-73
2022/03/13 19:48:52;;;;;;;1.60;0.90;;;11.40;99.90;;;;;;4972463;28;20701;-73
2022/03/13 19:51:20;;;;;;;1.50;1.03;;;11.40;99.90;;;;;;4972973;28;20207;-73
2022/03/13 19:53:51;;;;;;;2.10;1.13;;;11.40;99.90;;;;;;4954564;28;20263;-73
2022/03/13 19:56:21;;;;;;;1.70;1.13;;;11.40;99.90;;;;;;4953652;28;20216;-73
2022/03/13 19:58:48;;;;;;;1.53;0.90;;;11.30;99.90;;;;;;4953975;28;20255;-73
2022/03/13 20:01:16;;;;;;;1.40;0.90;;;11.30;99.90;;;;;;4953617;28;20223;-73
2022/03/13 20:03:44;;;;;;;2.10;0.90;;;11.20;99.90;;;;;;4972003;28;20199;-73
2022/03/13 20:06:12;;;;;;;1.77;0.80;;;11.20;99.90;;;;;;4973006;28;20215;-74
2022/03/13 20:08:39;;;;;;;1.30;0.93;;;11.20;99.90;;;;;;4975802;28;20226;-73
2022/03/13 20:11:06;;;;;;;1.87;1.00;;;11.30;99.90;;;;;;4977149;28;20218;-73
2022/03/13 20:13:34;;;;;;;1.30;0.80;;;11.20;99.90;;;;;;4976761;28;20646;-73
2022/03/13 20:16:02;;;;;;;0.97;0.80;;;11.20;99.90;;;;;;4973058;28;20203;-74
2022/03/13 20:18:28;;;;;;;1.67;1.00;;;11.30;99.90;;;;;;4975295;28;20226;-73
2022/03/13 20:20:55;;;;;;;1.53;0.80;;;11.40;99.90;;;;;;4975938;28;20219;-73
2022/03/13 20:23:22;;;;;;;1.40;0.87;;;11.40;99.90;;;;;;4972654;28;20561;-73
2022/03/13 20:25:50;;;;;;;1.47;0.93;;;11.40;99.90;;;;;;4976083;28;20230;-73
2022/03/13 20:28:17;;;;;;;1.67;0.90;;;11.30;99.90;;;;;;4976991;28;20702;-73
2022/03/13 20:30:46;;;;;;;1.10;0.67;;;11.20;99.90;;;;;;4977136;28;20234;-73
2022/03/13 20:33:13;;;;;;;1.73;1.10;;;11.20;99.90;;;;;;4965353;28;20201;-73
2022/03/13 20:35:39;;;;;;;1.40;0.83;;;11.20;99.90;;;;;;4971119;28;20614;-73
2022/03/13 20:38:07;;;;;;;1.17;0.77;;;11.20;99.90;;;;;;4973535;28;20234;-73
2022/03/13 20:40:34;;;;;;;1.53;1.00;;;11.30;99.90;;;;;;4969653;28;20251;-73
2022/03/13 20:43:01;;;;;;;1.60;0.93;;;11.20;99.90;;;;;;4964105;28;20306;-73
2022/03/13 20:45:28;;;;;;;1.93;1.00;;;11.30;99.90;;;;;;4973992;28;20855;-73
2022/03/13 20:47:56;;;;;;;1.87;0.87;;;11.30;99.90;;;;;;4976256;28;20238;-73
2022/03/13 20:50:23;;;;;;;1.50;0.80;;;11.30;99.90;;;;;;4976788;28;20242;-74
2022/03/13 20:52:50;;;;;;;2.10;0.93;;;11.20;99.90;;;;;;4975086;28;20207;-73
2022/03/13 20:55:18;;;;;;;1.53;0.77;;;11.30;99.90;;;;;;4974922;28;20211;-73
2022/03/13 20:57:46;;;;;;;1.77;0.90;;;11.30;99.90;;;;;;4973493;28;20226;-73
2022/03/13 21:00:15;;;;;;;2.57;0.90;;;11.30;99.90;;;;;;4975047;28;20203;-73
2022/03/13 21:02:42;;;;;;;1.57;0.90;;;11.30;99.90;;;;;;4976406;28;20210;-73